sensor_id;sensor_type;location;lat;lon;timestamp;temperature;humidity
63537;DHT22;49686;51.880;5.632;2022-11-24T00:01:25;6.20;99.90
63537;DHT22;49686;51.880;5.632;2022-11-24T00:03:53;6.00;99.90
63537;DHT22;49686;51.880;5.632;2022-11-24T00:06:22;6.10;99.90
63537;DHT22;49686;51.880;5.632;2022-11-24T00:08:49;6.10;99.90
63537;DHT22;49686;51.880;5.632;2022-11-24T00:11:18;5.80;99.90
63537;DHT22;49686;51.880;5.632;2022-11-24T00:13:45;5.90;99.90
63537;DHT22;49686;51.880;5.632;2022-11-24T00:16:15;5.80;99.90
63537;DHT22;49686;51.880;5.632;2022-11-24T00:18:44;5.80;99.90
63537;DHT22;49686;51.880;5.632;2022-11-24T00:21:12;5.80;99.90
63537;DHT22;49686;51.880;5.632;2022-11-24T00:23:40;5.80;99.90
63537;DHT22;49686;51.880;5.632;2022-11-24T00:26:09;5.70;99.90
63537;DHT22;49686;51.880;5.632;2022-11-24T00:28:36;5.70;99.90
63537;DHT22;49686;51.880;5.632;2022-11-24T00:31:12;5.70;99.90
63537;DHT22;49686;51.880;5.632;2022-11-24T00:33:43;5.60;99.90
63537;DHT22;49686;51.880;5.632;2022-11-24T00:36:10;5.60;99.90
63537;DHT22;49686;51.880;5.632;2022-11-24T00:38:37;5.60;99.90
63537;DHT22;49686;51.880;5.632;2022-11-24T00:41:06;5.50;99.90
63537;DHT22;49686;51.880;5.632;2022-11-24T00:43:33;5.40;99.90
63537;DHT22;49686;51.880;5.632;2022-11-24T00:45:59;5.30;99.90
63537;DHT22;49686;51.880;5.632;2022-11-24T00:48:27;5.30;99.90
63537;DHT22;49686;51.880;5.632;2022-11-24T00:50:58;5.30;99.90
63537;DHT22;49686;51.880;5.632;2022-11-24T00:53:25;5.30;99.90
63537;DHT22;49686;51.880;5.632;2022-11-24T00:55:52;5.30;99.90
63537;DHT22;49686;51.880;5.632;2022-11-24T00:58:21;5.30;99.90
63537;DHT22;49686;51.880;5.632;2022-11-24T01:00:49;5.30;99.90
63537;DHT22;49686;51.880;5.632;2022-11-24T01:03:17;5.30;99.90
63537;DHT22;49686;51.880;5.632;2022-11-24T01:05:44;5.40;99.90
63537;DHT22;49686;51.880;5.632;2022-11-24T01:08:11;5.40;99.90
63537;DHT22;49686;51.880;5.632;2022-11-24T01:10:38;5.50;99.90
63537;DHT22;49686;51.880;5.632;2022-11-24T01:13:05;5.40;99.90
63537;DHT22;49686;51.880;5.632;2022-11-24T01:15:35;5.40;99.90
63537;DHT22;49686;51.880;5.632;2022-11-24T01:18:02;5.30;99.90
63537;DHT22;49686;51.880;5.632;2022-11-24T01:20:30;5.30;99.90
63537;DHT22;49686;51.880;5.632;2022-11-24T01:22:57;5.30;99.90
63537;DHT22;49686;51.880;5.632;2022-11-24T01:25:23;5.50;99.90
63537;DHT22;49686;51.880;5.632;2022-11-24T01:27:50;5.40;99.90
63537;DHT22;49686;51.880;5.632;2022-11-24T01:30:18;5.50;99.90
63537;DHT22;49686;51.880;5.632;2022-11-24T01:32:46;5.70;99.90
63537;DHT22;49686;51.880;5.632;2022-11-24T01:35:12;5.60;99.90
63537;DHT22;49686;51.880;5.632;2022-11-24T01:37:39;5.50;99.90
63537;DHT22;49686;51.880;5.632;2022-11-24T01:40:07;5.50;99.90
63537;DHT22;49686;51.880;5.632;2022-11-24T01:42:39;5.30;99.90
63537;DHT22;49686;51.880;5.632;2022-11-24T01:45:34;5.30;99.90
63537;DHT22;49686;51.880;5.632;2022-11-24T01:48:05;5.30;99.90
63537;DHT22;49686;51.880;5.632;2022-11-24T01:50:34;5.30;99.90
63537;DHT22;49686;51.880;5.632;2022-11-24T01:53:02;5.30;99.90
63537;DHT22;49686;51.880;5.632;2022-11-24T01:55:32;5.30;99.90
63537;DHT22;49686;51.880;5.632;2022-11-24T01:58:04;5.40;99.90
63537;DHT22;49686;51.880;5.632;2022-11-24T02:00:32;5.40;99.90
63537;DHT22;49686;51.880;5.632;2022-11-24T02:03:00;5.40;99.90
63537;DHT22;49686;51.880;5.632;2022-11-24T02:05:32;5.50;99.90
63537;DHT22;49686;51.880;5.632;2022-11-24T02:08:01;5.50;99.90
63537;DHT22;49686;51.880;5.632;2022-11-24T02:10:29;5.50;99.90
63537;DHT22;49686;51.880;5.632;2022-11-24T02:12:57;5.50;99.90
63537;DHT22;49686;51.880;5.632;2022-11-24T02:15:24;5.60;99.90
63537;DHT22;49686;51.880;5.632;2022-11-24T02:17:51;5.60;99.90
63537;DHT22;49686;51.880;5.632;2022-11-24T02:20:19;5.60;99.90
63537;DHT22;49686;51.880;5.632;2022-11-24T02:22:52;5.60;99.90
63537;DHT22;49686;51.880;5.632;2022-11-24T02:25:27;5.70;99.90
63537;DHT22;49686;51.880;5.632;2022-11-24T02:27:58;5.70;99.90
63537;DHT22;49686;51.880;5.632;2022-11-24T02:30:26;5.80;99.90
63537;DHT22;49686;51.880;5.632;2022-11-24T02:32:53;5.60;99.90
63537;DHT22;49686;51.880;5.632;2022-11-24T02:35:20;5.60;99.90
63537;DHT22;49686;51.880;5.632;2022-11-24T02:37:47;5.50;99.90
63537;DHT22;49686;51.880;5.632;2022-11-24T02:40:14;5.50;99.90
63537;DHT22;49686;51.880;5.632;2022-11-24T02:42:43;5.40;99.90
63537;DHT22;49686;51.880;5.632;2022-11-24T02:45:14;5.40;99.90
63537;DHT22;49686;51.880;5.632;2022-11-24T02:47:41;5.40;99.90
63537;DHT22;49686;51.880;5.632;2022-11-24T02:50:08;5.30;99.90
63537;DHT22;49686;51.880;5.632;2022-11-24T02:52:35;5.30;99.90
63537;DHT22;49686;51.880;5.632;2022-11-24T02:55:02;5.40;99.90
63537;DHT22;49686;51.880;5.632;2022-11-24T02:57:30;5.30;99.90
63537;DHT22;49686;51.880;5.632;2022-11-24T02:59:57;5.60;99.90
63537;DHT22;49686;51.880;5.632;2022-11-24T03:02:25;5.60;99.90
63537;DHT22;49686;51.880;5.632;2022-11-24T03:04:52;5.60;99.90
63537;DHT22;49686;51.880;5.632;2022-11-24T03:07:18;5.60;99.90
63537;DHT22;49686;51.880;5.632;2022-11-24T03:09:45;5.50;99.90
63537;DHT22;49686;51.880;5.632;2022-11-24T03:12:12;5.40;99.90
63537;DHT22;49686;51.880;5.632;2022-11-24T03:14:39;5.50;99.90
63537;DHT22;49686;51.880;5.632;2022-11-24T03:17:06;5.70;99.90
63537;DHT22;49686;51.880;5.632;2022-11-24T03:19:34;5.80;99.90
63537;DHT22;49686;51.880;5.632;2022-11-24T03:22:01;5.80;99.90
63537;DHT22;49686;51.880;5.632;2022-11-24T03:24:28;5.90;99.90
63537;DHT22;49686;51.880;5.632;2022-11-24T03:26:55;5.80;99.90
63537;DHT22;49686;51.880;5.632;2022-11-24T03:29:22;5.80;99.90
63537;DHT22;49686;51.880;5.632;2022-11-24T03:31:49;5.60;99.90
63537;DHT22;49686;51.880;5.632;2022-11-24T03:34:15;5.60;99.90
63537;DHT22;49686;51.880;5.632;2022-11-24T03:36:44;5.50;99.90
63537;DHT22;49686;51.880;5.632;2022-11-24T03:39:10;5.60;99.90
63537;DHT22;49686;51.880;5.632;2022-11-24T03:41:37;5.40;99.90
63537;DHT22;49686;51.880;5.632;2022-11-24T03:44:04;5.40;99.90
63537;DHT22;49686;51.880;5.632;2022-11-24T03:46:31;5.30;99.90
63537;DHT22;49686;51.880;5.632;2022-11-24T03:48:58;5.30;99.90
63537;DHT22;49686;51.880;5.632;2022-11-24T03:51:25;5.40;99.90
63537;DHT22;49686;51.880;5.632;2022-11-24T03:53:53;5.50;99.90
63537;DHT22;49686;51.880;5.632;2022-11-24T03:56:20;5.40;99.90
63537;DHT22;49686;51.880;5.632;2022-11-24T03:58:46;5.30;99.90
63537;DHT22;49686;51.880;5.632;2022-11-24T04:01:13;5.40;99.90
63537;DHT22;49686;51.880;5.632;2022-11-24T04:03:40;5.30;99.90
63537;DHT22;49686;51.880;5.632;2022-11-24T04:06:07;5.30;99.90
63537;DHT22;49686;51.880;5.632;2022-11-24T04:08:34;5.30;99.90
63537;DHT22;49686;51.880;5.632;2022-11-24T04:11:02;5.30;99.90
63537;DHT22;49686;51.880;5.632;2022-11-24T04:13:29;5.20;99.90
63537;DHT22;49686;51.880;5.632;2022-11-24T04:15:56;5.20;99.90
63537;DHT22;49686;51.880;5.632;2022-11-24T04:18:22;5.20;99.90
63537;DHT22;49686;51.880;5.632;2022-11-24T04:20:50;5.20;99.90
63537;DHT22;49686;51.880;5.632;2022-11-24T04:23:17;5.30;99.90
63537;DHT22;49686;51.880;5.632;2022-11-24T04:25:44;5.40;99.90
63537;DHT22;49686;51.880;5.632;2022-11-24T04:28:12;5.50;99.90
63537;DHT22;49686;51.880;5.632;2022-11-24T04:30:39;5.70;99.90
63537;DHT22;49686;51.880;5.632;2022-11-24T04:33:06;5.80;99.90
63537;DHT22;49686;51.880;5.632;2022-11-24T04:35:34;5.80;99.90
63537;DHT22;49686;51.880;5.632;2022-11-24T04:38:01;5.80;99.90
63537;DHT22;49686;51.880;5.632;2022-11-24T04:40:28;5.80;99.90
63537;DHT22;49686;51.880;5.632;2022-11-24T04:42:55;5.80;99.90
63537;DHT22;49686;51.880;5.632;2022-11-24T04:45:23;5.90;99.90
63537;DHT22;49686;51.880;5.632;2022-11-24T04:47:50;6.00;99.90
63537;DHT22;49686;51.880;5.632;2022-11-24T04:50:17;5.90;99.90
63537;DHT22;49686;51.880;5.632;2022-11-24T04:52:44;5.90;99.90
63537;DHT22;49686;51.880;5.632;2022-11-24T04:55:10;6.00;99.90
63537;DHT22;49686;51.880;5.632;2022-11-24T04:57:38;6.10;99.90
63537;DHT22;49686;51.880;5.632;2022-11-24T05:00:06;6.00;99.90
63537;DHT22;49686;51.880;5.632;2022-11-24T05:02:34;6.10;99.90
63537;DHT22;49686;51.880;5.632;2022-11-24T05:05:01;6.00;99.90
63537;DHT22;49686;51.880;5.632;2022-11-24T05:07:27;6.00;99.90
63537;DHT22;49686;51.880;5.632;2022-11-24T05:09:54;5.90;99.90
63537;DHT22;49686;51.880;5.632;2022-11-24T05:12:25;5.80;99.90
63537;DHT22;49686;51.880;5.632;2022-11-24T05:14:52;5.80;99.90
63537;DHT22;49686;51.880;5.632;2022-11-24T05:17:19;5.70;99.90
63537;DHT22;49686;51.880;5.632;2022-11-24T05:19:47;5.80;99.90
63537;DHT22;49686;51.880;5.632;2022-11-24T05:22:14;5.70;99.90
63537;DHT22;49686;51.880;5.632;2022-11-24T05:24:41;5.70;99.90
63537;DHT22;49686;51.880;5.632;2022-11-24T05:27:08;5.60;99.90
63537;DHT22;49686;51.880;5.632;2022-11-24T05:29:34;5.60;99.90
63537;DHT22;49686;51.880;5.632;2022-11-24T05:32:01;5.50;99.90
63537;DHT22;49686;51.880;5.632;2022-11-24T05:34:28;5.50;99.90
63537;DHT22;49686;51.880;5.632;2022-11-24T05:36:56;5.50;99.90
63537;DHT22;49686;51.880;5.632;2022-11-24T05:39:23;5.50;99.90
63537;DHT22;49686;51.880;5.632;2022-11-24T05:41:50;5.50;99.90
63537;DHT22;49686;51.880;5.632;2022-11-24T05:44:17;5.50;99.90
63537;DHT22;49686;51.880;5.632;2022-11-24T05:46:43;5.40;99.90
63537;DHT22;49686;51.880;5.632;2022-11-24T05:49:10;5.40;99.90
63537;DHT22;49686;51.880;5.632;2022-11-24T05:51:37;5.40;99.90
63537;DHT22;49686;51.880;5.632;2022-11-24T05:54:05;5.40;99.90
63537;DHT22;49686;51.880;5.632;2022-11-24T05:56:32;5.40;99.90
63537;DHT22;49686;51.880;5.632;2022-11-24T05:58:59;5.40;99.90
63537;DHT22;49686;51.880;5.632;2022-11-24T06:01:31;5.50;99.90
63537;DHT22;49686;51.880;5.632;2022-11-24T06:03:57;5.40;99.90
63537;DHT22;49686;51.880;5.632;2022-11-24T06:06:24;5.40;99.90
63537;DHT22;49686;51.880;5.632;2022-11-24T06:08:51;5.40;99.90
63537;DHT22;49686;51.880;5.632;2022-11-24T06:11:19;5.30;99.90
63537;DHT22;49686;51.880;5.632;2022-11-24T06:13:46;5.30;99.90
63537;DHT22;49686;51.880;5.632;2022-11-24T06:16:13;5.30;99.90
63537;DHT22;49686;51.880;5.632;2022-11-24T06:18:40;5.40;99.90
63537;DHT22;49686;51.880;5.632;2022-11-24T06:21:07;5.30;99.90
63537;DHT22;49686;51.880;5.632;2022-11-24T06:23:37;5.40;99.90
63537;DHT22;49686;51.880;5.632;2022-11-24T06:26:04;5.30;99.90
63537;DHT22;49686;51.880;5.632;2022-11-24T06:28:32;5.30;99.90
63537;DHT22;49686;51.880;5.632;2022-11-24T06:31:00;5.30;99.90
63537;DHT22;49686;51.880;5.632;2022-11-24T06:33:30;5.30;99.90
63537;DHT22;49686;51.880;5.632;2022-11-24T06:36:01;5.30;99.90
63537;DHT22;49686;51.880;5.632;2022-11-24T06:38:29;5.30;99.90
63537;DHT22;49686;51.880;5.632;2022-11-24T06:40:59;5.30;99.90
63537;DHT22;49686;51.880;5.632;2022-11-24T06:43:26;5.40;99.90
63537;DHT22;49686;51.880;5.632;2022-11-24T06:45:55;5.40;99.90
63537;DHT22;49686;51.880;5.632;2022-11-24T06:48:21;5.40;99.90
63537;DHT22;49686;51.880;5.632;2022-11-24T06:50:48;5.40;99.90
63537;DHT22;49686;51.880;5.632;2022-11-24T06:53:15;5.40;99.90
63537;DHT22;49686;51.880;5.632;2022-11-24T06:55:43;5.40;99.90
63537;DHT22;49686;51.880;5.632;2022-11-24T06:58:10;5.60;99.90
63537;DHT22;49686;51.880;5.632;2022-11-24T07:00:37;5.50;99.90
63537;DHT22;49686;51.880;5.632;2022-11-24T07:03:06;5.60;99.90
63537;DHT22;49686;51.880;5.632;2022-11-24T07:05:32;5.50;99.90
63537;DHT22;49686;51.880;5.632;2022-11-24T07:07:59;5.60;99.90
63537;DHT22;49686;51.880;5.632;2022-11-24T07:10:26;5.60;99.90
63537;DHT22;49686;51.880;5.632;2022-11-24T07:12:53;5.60;99.90
63537;DHT22;49686;51.880;5.632;2022-11-24T07:15:19;5.60;99.90
63537;DHT22;49686;51.880;5.632;2022-11-24T07:17:46;5.60;99.90
63537;DHT22;49686;51.880;5.632;2022-11-24T07:20:15;5.50;99.90
63537;DHT22;49686;51.880;5.632;2022-11-24T07:22:42;5.50;99.90
63537;DHT22;49686;51.880;5.632;2022-11-24T07:25:09;5.50;99.90
63537;DHT22;49686;51.880;5.632;2022-11-24T07:27:36;5.50;99.90
63537;DHT22;49686;51.880;5.632;2022-11-24T07:30:03;5.60;99.90
63537;DHT22;49686;51.880;5.632;2022-11-24T07:32:30;5.60;99.90
63537;DHT22;49686;51.880;5.632;2022-11-24T07:34:57;5.50;99.90
63537;DHT22;49686;51.880;5.632;2022-11-24T07:37:25;5.60;99.90
63537;DHT22;49686;51.880;5.632;2022-11-24T07:39:57;5.60;99.90
63537;DHT22;49686;51.880;5.632;2022-11-24T07:42:24;5.60;99.90
63537;DHT22;49686;51.880;5.632;2022-11-24T07:44:50;5.60;99.90
63537;DHT22;49686;51.880;5.632;2022-11-24T07:47:17;5.50;99.90
63537;DHT22;49686;51.880;5.632;2022-11-24T07:49:44;5.50;99.90
63537;DHT22;49686;51.880;5.632;2022-11-24T07:52:10;5.50;99.90
63537;DHT22;49686;51.880;5.632;2022-11-24T07:54:38;5.50;99.90
63537;DHT22;49686;51.880;5.632;2022-11-24T07:57:05;5.50;99.90
63537;DHT22;49686;51.880;5.632;2022-11-24T07:59:32;5.50;99.90
63537;DHT22;49686;51.880;5.632;2022-11-24T08:01:59;5.50;99.90
63537;DHT22;49686;51.880;5.632;2022-11-24T08:04:26;5.50;99.90
63537;DHT22;49686;51.880;5.632;2022-11-24T08:06:52;5.50;99.90
63537;DHT22;49686;51.880;5.632;2022-11-24T08:09:19;5.50;99.90
63537;DHT22;49686;51.880;5.632;2022-11-24T08:11:47;5.50;99.90
63537;DHT22;49686;51.880;5.632;2022-11-24T08:14:14;5.50;99.90
63537;DHT22;49686;51.880;5.632;2022-11-24T08:16:40;5.50;99.90
63537;DHT22;49686;51.880;5.632;2022-11-24T08:19:08;5.60;99.90
63537;DHT22;49686;51.880;5.632;2022-11-24T08:21:34;5.60;99.90
63537;DHT22;49686;51.880;5.632;2022-11-24T08:24:01;5.70;99.90
63537;DHT22;49686;51.880;5.632;2022-11-24T08:26:28;5.70;99.90
63537;DHT22;49686;51.880;5.632;2022-11-24T08:28:57;5.70;99.90
63537;DHT22;49686;51.880;5.632;2022-11-24T08:31:26;5.80;99.90
63537;DHT22;49686;51.880;5.632;2022-11-24T08:33:54;5.80;99.90
63537;DHT22;49686;51.880;5.632;2022-11-24T08:36:21;5.80;99.90
63537;DHT22;49686;51.880;5.632;2022-11-24T08:38:53;5.80;99.90
63537;DHT22;49686;51.880;5.632;2022-11-24T08:41:20;5.70;99.90
63537;DHT22;49686;51.880;5.632;2022-11-24T08:43:47;5.70;99.90
63537;DHT22;49686;51.880;5.632;2022-11-24T08:46:16;5.60;99.90
63537;DHT22;49686;51.880;5.632;2022-11-24T08:48:46;5.60;99.90
63537;DHT22;49686;51.880;5.632;2022-11-24T08:51:15;5.60;99.90
63537;DHT22;49686;51.880;5.632;2022-11-24T08:53:42;5.60;99.90
63537;DHT22;49686;51.880;5.632;2022-11-24T08:56:10;5.60;99.90
63537;DHT22;49686;51.880;5.632;2022-11-24T08:58:37;5.70;99.90
63537;DHT22;49686;51.880;5.632;2022-11-24T09:01:05;5.80;99.90
63537;DHT22;49686;51.880;5.632;2022-11-24T09:03:34;5.80;99.90
63537;DHT22;49686;51.880;5.632;2022-11-24T09:06:01;5.80;99.90
63537;DHT22;49686;51.880;5.632;2022-11-24T09:08:28;5.80;99.90
63537;DHT22;49686;51.880;5.632;2022-11-24T09:10:58;5.90;99.90
63537;DHT22;49686;51.880;5.632;2022-11-24T09:13:25;6.00;99.90
63537;DHT22;49686;51.880;5.632;2022-11-24T09:15:52;6.10;99.90
63537;DHT22;49686;51.880;5.632;2022-11-24T09:18:19;6.10;99.90
63537;DHT22;49686;51.880;5.632;2022-11-24T09:20:47;6.30;99.90
63537;DHT22;49686;51.880;5.632;2022-11-24T09:23:13;6.50;99.90
63537;DHT22;49686;51.880;5.632;2022-11-24T09:25:40;6.50;99.90
63537;DHT22;49686;51.880;5.632;2022-11-24T09:28:07;6.40;99.90
63537;DHT22;49686;51.880;5.632;2022-11-24T09:30:33;6.50;99.90
63537;DHT22;49686;51.880;5.632;2022-11-24T09:33:00;6.60;99.90
63537;DHT22;49686;51.880;5.632;2022-11-24T09:35:27;6.90;99.90
63537;DHT22;49686;51.880;5.632;2022-11-24T09:37:55;6.70;99.90
63537;DHT22;49686;51.880;5.632;2022-11-24T09:40:22;6.60;99.90
63537;DHT22;49686;51.880;5.632;2022-11-24T09:42:56;6.80;99.90
63537;DHT22;49686;51.880;5.632;2022-11-24T09:45:42;6.80;99.90
63537;DHT22;49686;51.880;5.632;2022-11-24T09:48:33;6.80;99.90
63537;DHT22;49686;51.880;5.632;2022-11-24T09:51:03;6.80;99.90
63537;DHT22;49686;51.880;5.632;2022-11-24T09:53:36;6.80;99.90
63537;DHT22;49686;51.880;5.632;2022-11-24T09:56:14;7.00;99.90
63537;DHT22;49686;51.880;5.632;2022-11-24T09:58:44;6.90;99.90
63537;DHT22;49686;51.880;5.632;2022-11-24T10:01:15;7.00;99.90
63537;DHT22;49686;51.880;5.632;2022-11-24T10:03:44;7.10;99.90
63537;DHT22;49686;51.880;5.632;2022-11-24T10:06:24;7.00;99.90
63537;DHT22;49686;51.880;5.632;2022-11-24T10:09:16;7.20;99.90
63537;DHT22;49686;51.880;5.632;2022-11-24T10:11:49;7.10;99.90
63537;DHT22;49686;51.880;5.632;2022-11-24T10:17:23;7.20;99.90
63537;DHT22;49686;51.880;5.632;2022-11-24T10:19:55;7.20;99.90
63537;DHT22;49686;51.880;5.632;2022-11-24T10:22:34;7.20;99.90
63537;DHT22;49686;51.880;5.632;2022-11-24T10:25:19;7.30;99.90
63537;DHT22;49686;51.880;5.632;2022-11-24T10:27:48;7.40;99.90
63537;DHT22;49686;51.880;5.632;2022-11-24T10:30:19;7.40;99.90
63537;DHT22;49686;51.880;5.632;2022-11-24T10:32:48;7.40;99.90
63537;DHT22;49686;51.880;5.632;2022-11-24T10:35:18;7.40;99.90
63537;DHT22;49686;51.880;5.632;2022-11-24T10:37:56;7.40;99.90
63537;DHT22;49686;51.880;5.632;2022-11-24T10:40:36;7.50;99.90
63537;DHT22;49686;51.880;5.632;2022-11-24T10:43:25;7.70;99.90
63537;DHT22;49686;51.880;5.632;2022-11-24T10:45:53;7.70;99.90
63537;DHT22;49686;51.880;5.632;2022-11-24T10:48:22;7.70;99.90
63537;DHT22;49686;51.880;5.632;2022-11-24T10:50:51;7.70;99.90
63537;DHT22;49686;51.880;5.632;2022-11-24T10:53:22;7.70;99.90
63537;DHT22;49686;51.880;5.632;2022-11-24T10:56:02;7.70;99.90
63537;DHT22;49686;51.880;5.632;2022-11-24T10:58:31;7.60;99.90
63537;DHT22;49686;51.880;5.632;2022-11-24T11:01:19;7.80;99.90
63537;DHT22;49686;51.880;5.632;2022-11-24T11:03:48;7.80;99.90
63537;DHT22;49686;51.880;5.632;2022-11-24T11:06:21;7.90;99.90
63537;DHT22;49686;51.880;5.632;2022-11-24T11:08:47;7.90;99.90
63537;DHT22;49686;51.880;5.632;2022-11-24T11:11:20;7.90;99.90
63537;DHT22;49686;51.880;5.632;2022-11-24T11:13:50;8.10;99.90
63537;DHT22;49686;51.880;5.632;2022-11-24T11:16:34;8.00;99.90
63537;DHT22;49686;51.880;5.632;2022-11-24T11:19:03;7.90;99.90
63537;DHT22;49686;51.880;5.632;2022-11-24T11:21:59;8.20;99.90
63537;DHT22;49686;51.880;5.632;2022-11-24T11:24:26;8.30;99.90
63537;DHT22;49686;51.880;5.632;2022-11-24T11:26:59;8.30;99.90
63537;DHT22;49686;51.880;5.632;2022-11-24T11:29:27;8.20;99.90
63537;DHT22;49686;51.880;5.632;2022-11-24T11:32:17;8.20;99.90
63537;DHT22;49686;51.880;5.632;2022-11-24T11:35:04;8.50;99.90
63537;DHT22;49686;51.880;5.632;2022-11-24T11:37:32;8.40;99.90
63537;DHT22;49686;51.880;5.632;2022-11-24T11:39:59;8.60;99.90
63537;DHT22;49686;51.880;5.632;2022-11-24T11:42:35;8.30;99.90
63537;DHT22;49686;51.880;5.632;2022-11-24T11:45:27;8.40;99.90
63537;DHT22;49686;51.880;5.632;2022-11-24T11:47:57;8.30;99.90
63537;DHT22;49686;51.880;5.632;2022-11-24T11:50:33;8.50;99.90
63537;DHT22;49686;51.880;5.632;2022-11-24T11:53:32;8.40;99.90
63537;DHT22;49686;51.880;5.632;2022-11-24T11:56:13;8.40;99.90
63537;DHT22;49686;51.880;5.632;2022-11-24T11:59:04;8.50;99.90
63537;DHT22;49686;51.880;5.632;2022-11-24T12:01:44;8.60;99.90
63537;DHT22;49686;51.880;5.632;2022-11-24T12:04:21;8.50;99.90
63537;DHT22;49686;51.880;5.632;2022-11-24T12:07:05;8.60;99.90
63537;DHT22;49686;51.880;5.632;2022-11-24T12:09:51;8.70;99.90
63537;DHT22;49686;51.880;5.632;2022-11-24T12:12:35;8.70;99.90
63537;DHT22;49686;51.880;5.632;2022-11-24T12:15:12;8.70;99.90
63537;DHT22;49686;51.880;5.632;2022-11-24T12:17:45;8.70;99.90
63537;DHT22;49686;51.880;5.632;2022-11-24T12:20:22;8.70;99.90
63537;DHT22;49686;51.880;5.632;2022-11-24T12:22:57;8.50;99.90
63537;DHT22;49686;51.880;5.632;2022-11-24T12:25:31;8.60;99.90
63537;DHT22;49686;51.880;5.632;2022-11-24T12:28:10;8.50;99.90
63537;DHT22;49686;51.880;5.632;2022-11-24T12:30:46;8.60;99.90
63537;DHT22;49686;51.880;5.632;2022-11-24T12:33:40;8.60;99.90
63537;DHT22;49686;51.880;5.632;2022-11-24T12:36:31;8.70;99.90
63537;DHT22;49686;51.880;5.632;2022-11-24T12:39:05;8.60;99.90
63537;DHT22;49686;51.880;5.632;2022-11-24T12:41:48;8.70;99.90
63537;DHT22;49686;51.880;5.632;2022-11-24T12:44:34;8.60;99.90
63537;DHT22;49686;51.880;5.632;2022-11-24T12:47:10;8.70;99.90
63537;DHT22;49686;51.880;5.632;2022-11-24T12:49:43;8.70;99.90
63537;DHT22;49686;51.880;5.632;2022-11-24T12:52:20;8.80;99.90
63537;DHT22;49686;51.880;5.632;2022-11-24T12:54:48;8.80;99.90
63537;DHT22;49686;51.880;5.632;2022-11-24T12:57:19;8.70;99.90
63537;DHT22;49686;51.880;5.632;2022-11-24T12:59:55;8.60;99.90
63537;DHT22;49686;51.880;5.632;2022-11-24T13:02:32;8.70;99.90
63537;DHT22;49686;51.880;5.632;2022-11-24T13:05:16;8.80;99.90
63537;DHT22;49686;51.880;5.632;2022-11-24T13:07:45;8.80;99.90
63537;DHT22;49686;51.880;5.632;2022-11-24T13:10:31;8.70;99.90
63537;DHT22;49686;51.880;5.632;2022-11-24T13:13:18;8.70;99.90
63537;DHT22;49686;51.880;5.632;2022-11-24T13:16:11;8.80;99.90
63537;DHT22;49686;51.880;5.632;2022-11-24T13:19:06;8.80;99.90
63537;DHT22;49686;51.880;5.632;2022-11-24T13:22:13;8.80;99.90
63537;DHT22;49686;51.880;5.632;2022-11-24T13:24:41;8.60;99.90
63537;DHT22;49686;51.880;5.632;2022-11-24T13:27:38;8.60;99.90
63537;DHT22;49686;51.880;5.632;2022-11-24T13:33:17;8.60;99.90
63537;DHT22;49686;51.880;5.632;2022-11-24T13:38:52;8.60;99.90
63537;DHT22;49686;51.880;5.632;2022-11-24T13:44:47;8.40;99.90
63537;DHT22;49686;51.880;5.632;2022-11-24T13:47:35;8.40;99.90
63537;DHT22;49686;51.880;5.632;2022-11-24T13:50:08;8.30;99.90
63537;DHT22;49686;51.880;5.632;2022-11-24T13:52:45;8.40;99.90
63537;DHT22;49686;51.880;5.632;2022-11-24T13:55:27;8.40;99.90
63537;DHT22;49686;51.880;5.632;2022-11-24T13:57:58;8.20;99.90
63537;DHT22;49686;51.880;5.632;2022-11-24T14:00:27;8.20;99.90
63537;DHT22;49686;51.880;5.632;2022-11-24T14:02:57;8.20;99.90
63537;DHT22;49686;51.880;5.632;2022-11-24T14:05:31;8.20;99.90
63537;DHT22;49686;51.880;5.632;2022-11-24T14:07:59;8.20;99.90
63537;DHT22;49686;51.880;5.632;2022-11-24T14:10:31;8.30;99.90
63537;DHT22;49686;51.880;5.632;2022-11-24T14:13:24;8.20;99.90
63537;DHT22;49686;51.880;5.632;2022-11-24T14:16:13;8.20;99.90
63537;DHT22;49686;51.880;5.632;2022-11-24T14:18:41;8.10;99.90
63537;DHT22;49686;51.880;5.632;2022-11-24T14:21:24;8.10;99.90
63537;DHT22;49686;51.880;5.632;2022-11-24T14:23:54;8.10;99.90
63537;DHT22;49686;51.880;5.632;2022-11-24T14:26:25;8.10;99.90
63537;DHT22;49686;51.880;5.632;2022-11-24T14:28:54;8.00;99.90
63537;DHT22;49686;51.880;5.632;2022-11-24T14:31:28;7.90;99.90
63537;DHT22;49686;51.880;5.632;2022-11-24T14:34:12;7.90;99.90
63537;DHT22;49686;51.880;5.632;2022-11-24T14:36:39;7.90;99.90
63537;DHT22;49686;51.880;5.632;2022-11-24T14:39:09;7.80;99.90
63537;DHT22;49686;51.880;5.632;2022-11-24T14:41:38;7.70;99.90
63537;DHT22;49686;51.880;5.632;2022-11-24T14:44:11;7.60;99.90
63537;DHT22;49686;51.880;5.632;2022-11-24T14:46:41;7.50;99.90
63537;DHT22;49686;51.880;5.632;2022-11-24T14:49:08;7.40;99.90
63537;DHT22;49686;51.880;5.632;2022-11-24T14:51:36;7.40;99.90
63537;DHT22;49686;51.880;5.632;2022-11-24T14:54:13;7.20;99.90
63537;DHT22;49686;51.880;5.632;2022-11-24T14:56:55;7.10;99.90
63537;DHT22;49686;51.880;5.632;2022-11-24T14:59:24;7.20;99.90
63537;DHT22;49686;51.880;5.632;2022-11-24T15:01:51;7.00;99.90
63537;DHT22;49686;51.880;5.632;2022-11-24T15:04:19;7.00;99.90
63537;DHT22;49686;51.880;5.632;2022-11-24T15:07:13;6.80;99.90
63537;DHT22;49686;51.880;5.632;2022-11-24T15:09:49;6.80;99.90
63537;DHT22;49686;51.880;5.632;2022-11-24T15:12:24;6.80;99.90
63537;DHT22;49686;51.880;5.632;2022-11-24T15:14:52;6.80;99.90
63537;DHT22;49686;51.880;5.632;2022-11-24T15:17:21;6.70;99.90
63537;DHT22;49686;51.880;5.632;2022-11-24T15:19:50;6.70;99.90
63537;DHT22;49686;51.880;5.632;2022-11-24T15:22:33;6.70;99.90
63537;DHT22;49686;51.880;5.632;2022-11-24T15:25:01;6.60;99.90
63537;DHT22;49686;51.880;5.632;2022-11-24T15:27:30;6.50;99.90
63537;DHT22;49686;51.880;5.632;2022-11-24T15:29:56;6.40;99.90
63537;DHT22;49686;51.880;5.632;2022-11-24T15:32:23;6.30;99.90
63537;DHT22;49686;51.880;5.632;2022-11-24T15:34:50;6.30;99.90
63537;DHT22;49686;51.880;5.632;2022-11-24T15:37:17;6.30;99.90
63537;DHT22;49686;51.880;5.632;2022-11-24T15:39:43;6.40;99.90
63537;DHT22;49686;51.880;5.632;2022-11-24T15:42:11;6.30;99.90
63537;DHT22;49686;51.880;5.632;2022-11-24T15:44:39;6.40;99.90
63537;DHT22;49686;51.880;5.632;2022-11-24T15:47:06;6.40;99.90
63537;DHT22;49686;51.880;5.632;2022-11-24T15:49:33;6.30;99.90
63537;DHT22;49686;51.880;5.632;2022-11-24T15:52:00;6.40;99.90
63537;DHT22;49686;51.880;5.632;2022-11-24T15:54:27;6.30;99.90
63537;DHT22;49686;51.880;5.632;2022-11-24T15:56:54;6.20;99.90
63537;DHT22;49686;51.880;5.632;2022-11-24T15:59:21;6.20;99.90
63537;DHT22;49686;51.880;5.632;2022-11-24T16:01:49;6.20;99.90
63537;DHT22;49686;51.880;5.632;2022-11-24T16:04:16;6.10;99.90
63537;DHT22;49686;51.880;5.632;2022-11-24T16:06:43;6.20;99.90
63537;DHT22;49686;51.880;5.632;2022-11-24T16:09:13;6.20;99.90
63537;DHT22;49686;51.880;5.632;2022-11-24T16:11:40;6.10;99.90
63537;DHT22;49686;51.880;5.632;2022-11-24T16:14:07;6.20;99.90
63537;DHT22;49686;51.880;5.632;2022-11-24T16:16:34;6.00;99.90
63537;DHT22;49686;51.880;5.632;2022-11-24T16:19:02;6.10;99.90